Time;durP1;ratioP1;P1;durP2;ratioP2;P2;SDS_P1;SDS_P2;PMS_P1;PMS_P2;Temp;Humidity;BMP_temperature;BMP_pressure;BME280_temperature;BME280_humidity;BME280_pressure;Samples;Min_cycle;Max_cycle;Signal;HPM_P1;HPM_P2
2022/03/11 00:00:40;;;;;;;11.47;8.73;;;;;;;9.94;34.74;99157.72;7054782;28;20289;-81
2022/03/11 00:04:03;;;;;;;12.07;8.53;;;;;;;10.14;34.36;99149.81;7054290;28;20710;-82
2022/03/11 00:07:24;;;;;;;13.40;9.83;;;;;;;10.67;33.70;99143.81;7054714;28;20238;-82
2022/03/11 00:10:46;;;;;;;12.90;8.60;;;;;;;10.18;34.31;99146.56;7055432;28;20298;-82
2022/03/11 00:14:09;;;;;;;11.27;9.50;;;;;;;9.87;35.29;99154.09;7054471;28;20231;-82
2022/03/11 00:17:30;;;;;;;11.03;9.40;;;;;;;10.09;34.74;99149.59;7046831;28;20576;-82
2022/03/11 00:20:53;;;;;;;13.80;8.97;;;;;;;9.37;35.57;99091.44;7054584;28;20281;-81
2022/03/11 00:24:15;;;;;;;12.30;9.50;;;;;;;9.75;35.48;99144.03;7054703;28;20253;-81
2022/03/11 00:27:36;;;;;;;13.87;10.40;;;;;;;9.17;35.96;99093.09;7055218;28;20233;-81
2022/03/11 00:30:58;;;;;;;12.27;9.77;;;;;;;10.01;34.98;99128.13;7054448;28;20558;-82
2022/03/11 00:34:20;;;;;;;13.60;10.33;;;;;;;9.67;35.99;99128.84;7054603;28;20228;-81
2022/03/11 00:37:43;;;;;;;12.87;10.47;;;;;;;9.90;35.20;99126.78;7055483;28;20668;-81
2022/03/11 00:41:04;;;;;;;15.43;9.77;;;;;;;10.01;35.49;99134.38;7055666;28;20210;-81
2022/03/11 00:44:26;;;;;;;17.80;11.00;;;;;;;10.09;34.83;99130.75;7054971;28;20356;-80
2022/03/11 00:47:48;;;;;;;16.43;10.73;;;;;;;9.65;35.12;99098.59;7056440;28;20216;-80
2022/03/11 00:51:09;;;;;;;13.80;10.73;;;;;;;9.70;35.51;99135.72;7056642;28;20212;-80
2022/03/11 00:54:32;;;;;;;12.60;10.73;;;;;;;10.27;34.62;99125.72;7056814;28;20328;-81
2022/03/11 00:57:54;;;;;;;13.70;10.97;;;;;;;10.18;35.01;99130.41;7062208;28;20197;-80
2022/03/11 01:01:16;;;;;;;15.70;11.93;;;;;;;10.24;34.44;99108.06;7061642;28;20239;-80
2022/03/11 01:04:37;;;;;;;13.27;10.87;;;;;;;9.61;35.78;99143.06;7060262;28;20230;-80
2022/03/11 01:07:59;;;;;;;14.50;11.67;;;;;;;9.46;36.81;99130.69;7062892;28;20208;-81
2022/03/11 01:11:22;;;;;;;17.63;11.63;;;;;;;9.76;35.87;99129.56;7062634;28;20213;-80
2022/03/11 01:14:44;;;;;;;16.33;12.13;;;;;;;9.22;36.94;99122.97;7062390;28;20221;-80
2022/03/11 01:18:05;;;;;;;15.27;11.70;;;;;;;9.10;37.09;99127.97;7064324;28;20662;-80
2022/03/11 01:21:27;;;;;;;15.13;11.27;;;;;;;9.49;36.64;99132.97;7065226;28;20617;-81
2022/03/11 01:24:48;;;;;;;21.97;12.63;;;;;;;9.52;36.52;99105.69;7064574;28;20229;-81
2022/03/11 01:28:13;;;;;;;17.20;13.00;;;;;;;9.48;37.13;99131.31;7063674;28;20268;-80
2022/03/11 01:31:35;;;;;;;20.00;13.43;;;;;;;9.15;37.37;99130.13;7064209;28;20205;-80
2022/03/11 01:34:57;;;;;;;15.80;12.30;;;;;;;9.39;36.87;99117.16;7064112;28;20224;-80
2022/03/11 01:38:18;;;;;;;20.67;13.50;;;;;;;9.00;37.06;99064.75;7064130;28;20211;-80
2022/03/11 01:41:41;;;;;;;18.90;13.43;;;;;;;8.73;37.90;99115.69;7065055;28;20564;-80
2022/03/11 01:45:05;;;;;;;17.40;13.17;;;;;;;9.16;37.23;99113.75;7063861;28;20600;-80
2022/03/11 01:48:26;;;;;;;19.00;13.20;;;;;;;9.01;37.50;99117.50;7065663;28;20192;-80
2022/03/11 01:51:48;;;;;;;18.40;13.23;;;;;;;9.14;37.10;99110.44;7065870;28;20598;-80
2022/03/11 01:55:10;;;;;;;21.20;15.57;;;;;;;8.35;38.29;99081.84;7064968;28;20348;-80
2022/03/11 01:58:32;;;;;;;24.13;14.67;;;;;;;8.57;37.66;99038.78;7065886;28;20199;-80
2022/03/11 02:01:55;;;;;;;21.87;15.00;;;;;;;9.05;37.25;99124.19;7067083;28;20215;-80
2022/03/11 02:05:17;;;;;;;22.63;15.63;;;;;;;9.29;37.11;99124.72;7066845;28;20277;-80
2022/03/11 02:08:39;;;;;;;21.23;15.10;;;;;;;8.97;37.22;99081.28;7067005;28;20665;-80
2022/03/11 02:12:01;;;;;;;19.23;15.13;;;;;;;8.97;37.37;99116.22;7068396;28;20289;-81
2022/03/11 02:15:23;;;;;;;20.30;14.77;;;;;;;8.35;38.49;99104.19;7070234;28;20235;-81
2022/03/11 02:18:49;;;;;;;20.43;14.83;;;;;;;8.50;37.72;99077.31;7070238;28;20200;-80
2022/03/11 02:22:13;;;;;;;20.97;15.20;;;;;;;8.63;37.58;99117.81;7068971;28;20689;-80
2022/03/11 02:25:54;;;;;;;20.73;15.23;;;;;;;8.44;38.06;99118.34;7070331;28;20252;-80
2022/03/11 02:29:16;;;;;;;23.03;14.83;;;;;;;8.49;38.02;99114.09;7065490;28;20286;-83
2022/03/11 02:32:37;;;;;;;22.47;14.83;;;;;;;8.43;37.93;99101.38;7062116;28;20193;-83
2022/03/11 02:35:59;;;;;;;20.20;14.60;;;;;;;8.35;37.77;99114.06;7062752;28;20211;-83
2022/03/11 02:39:21;;;;;;;20.77;15.33;;;;;;;7.80;38.12;99044.63;7063568;28;20576;-83
2022/03/11 02:42:44;;;;;;;18.57;15.60;;;;;;;8.48;37.39;99104.38;7061113;28;20204;-84
2022/03/11 02:46:05;;;;;;;21.13;14.03;;;;;;;7.78;38.84;99094.13;7061913;28;20638;-84
2022/03/11 02:49:27;;;;;;;21.03;14.57;;;;;;;7.93;38.03;99097.66;7062568;28;20240;-84
2022/03/11 02:52:49;;;;;;;19.43;14.40;;;;;;;7.65;38.07;99024.09;7061714;28;20223;-84
2022/03/11 02:56:11;;;;;;;22.43;13.67;;;;;;;7.27;38.72;99033.16;7061468;28;20299;-83
2022/03/11 02:59:34;;;;;;;19.50;14.17;;;;;;;7.73;38.53;99108.06;7062392;28;20258;-84
2022/03/11 03:02:55;;;;;;;19.13;14.13;;;;;;;8.00;38.06;99107.50;7061342;28;20232;-84
2022/03/11 03:06:17;;;;;;;19.47;14.33;;;;;;;7.62;37.40;99054.84;7061523;28;20719;-84
2022/03/11 03:09:41;;;;;;;19.33;14.13;;;;;;;7.70;37.77;99097.69;7063230;28;20224;-84
2022/03/11 03:13:03;;;;;;;18.67;13.00;;;;;;;7.93;37.71;99101.19;7063984;28;20642;-84
2022/03/11 03:16:26;;;;;;;19.93;13.47;;;;;;;7.36;37.90;99027.53;7065594;28;20295;-85
2022/03/11 03:19:48;;;;;;;19.03;13.50;;;;;;;7.94;37.29;99069.81;7067425;28;20207;-84
2022/03/11 03:23:09;;;;;;;22.43;14.33;;;;;;;7.77;37.63;99081.72;7066240;28;20224;-84
2022/03/11 03:26:31;;;;;;;21.27;13.83;;;;;;;7.57;37.63;99085.88;7057615;28;20928;-84
2022/03/11 03:29:53;;;;;;;17.70;13.17;;;;;;;7.87;37.25;99090.34;7065294;28;20204;-84
2022/03/11 03:33:17;;;;;;;19.53;13.33;;;;;;;7.65;37.29;99040.19;7067377;28;20261;-85
2022/03/11 03:36:39;;;;;;;18.73;12.57;;;;;;;7.14;36.94;99040.94;7067658;28;20206;-85
2022/03/11 03:40:00;;;;;;;18.40;13.07;;;;;;;7.54;37.37;99087.09;7069834;28;20212;-85
2022/03/11 03:43:22;;;;;;;17.07;12.67;;;;;;;7.25;37.54;99083.44;7068443;28;20369;-84
2022/03/11 03:46:44;;;;;;;18.20;12.50;;;;;;;7.67;36.08;99083.81;7069104;28;20228;-83
2022/03/11 03:50:29;;;;;;;15.03;11.87;;;;;;;7.06;37.20;99073.16;7070003;28;20216;-83
2022/03/11 03:53:53;;;;;;;16.67;11.33;;;;;;;7.26;37.03;99099.34;7070189;28;20239;-83
2022/03/11 03:57:15;;;;;;;16.60;12.17;;;;;;;6.73;37.25;99048.38;7072432;28;20235;-84
2022/03/11 04:00:37;;;;;;;18.93;13.03;;;;;;;7.03;37.10;99098.50;7071882;28;20233;-83
2022/03/11 04:03:59;;;;;;;19.20;12.60;;;;;;;6.80;36.78;99094.91;7071489;28;20216;-86
2022/03/11 04:07:22;;;;;;;16.90;11.53;;;;;;;6.96;36.79;99064.53;7064381;28;20228;-85
2022/03/11 04:10:43;;;;;;;15.47;11.27;;;;;;;6.93;35.98;99038.06;7064675;28;20204;-85
2022/03/11 04:14:05;;;;;;;15.53;11.50;;;;;;;6.40;37.00;99083.50;7066753;28;20232;-85
2022/03/11 04:17:27;;;;;;;16.20;10.70;;;;;;;7.28;35.57;99083.09;7071397;28;20315;-84
2022/03/11 04:20:49;;;;;;;14.73;9.90;;;;;;;7.46;34.75;99087.16;7071533;28;20208;-84
2022/03/11 04:24:14;;;;;;;14.97;9.07;;;;;;;6.90;35.43;99094.69;7070722;28;20232;-83
2022/03/11 04:49:59;;;;;;;12.33;9.50;;;;;;;5.89;34.86;99092.00;6744271;29;20219;-86
2022/03/11 05:20:03;;;;;;;9.93;7.23;;;;;;;5.79;33.95;99089.44;6704955;29;20707;-85
2022/03/11 05:23:35;;;;;;;9.67;7.47;;;;;;;4.97;34.76;99008.56;6767168;29;20233;-85
2022/03/11 05:27:34;;;;;;;10.67;7.60;;;;;;;6.02;33.63;99093.13;6898781;28;20230;-86
2022/03/11 05:35:15;;;;;;;10.43;6.83;;;;;;;6.26;32.63;99105.63;6821638;29;20723;-85
2022/03/11 05:38:38;;;;;;;11.13;7.10;;;;;;;5.79;33.08;99124.22;6884442;28;20205;-88
2022/03/11 05:51:20;;;;;;;8.30;6.90;;;;;;;5.78;33.14;99122.53;6972000;28;20202;-88
2022/03/11 05:54:55;;;;;;;8.13;6.27;;;;;;;5.55;33.26;99118.03;6972730;28;20234;-86
2022/03/11 05:58:17;;;;;;;13.67;6.90;;;;;;;5.28;33.09;99083.56;7091544;27;20647;-86
2022/03/11 06:01:39;;;;;;;9.57;5.93;;;;;;;5.44;33.33;99121.88;7093123;27;20206;-86
2022/03/11 06:22:26;;;;;;;9.30;6.27;;;;;;;5.67;32.94;99114.03;6825891;29;20593;-86
2022/03/11 06:25:48;;;;;;;8.50;6.37;;;;;;;6.11;31.74;99120.72;6921726;28;20214;-85
2022/03/11 06:29:13;;;;;;;6.87;5.67;;;;;;;6.03;32.06;99123.41;6969058;28;20208;-82
2022/03/11 06:45:43;;;;;;;9.33;6.00;;;;;;;6.42;31.84;99114.47;6851806;28;20220;-86
2022/03/11 07:26:53;;;;;;;7.23;5.83;;;;;;;9.80;26.90;99093.16;6556877;30;20268;-83
2022/03/11 07:30:15;;;;;;;7.83;5.77;;;;;;;9.94;26.62;99109.25;6632960;29;20709;-78
2022/03/11 07:33:37;;;;;;;10.67;5.87;;;;;;;10.62;25.79;99105.84;6651995;29;20238;-79
2022/03/11 07:36:59;;;;;;;8.13;6.23;;;;;;;10.81;25.78;99108.63;6655794;29;20813;-79
2022/03/11 07:40:21;;;;;;;8.47;5.73;;;;;;;11.31;25.41;99094.75;6727630;29;20701;-79
2022/03/11 07:43:44;;;;;;;7.60;6.03;;;;;;;11.39;24.95;99104.56;6801054;29;20664;-79
2022/03/11 07:47:06;;;;;;;8.97;6.27;;;;;;;11.39;24.88;99109.94;6830387;28;20230;-79
2022/03/11 07:50:28;;;;;;;9.63;6.80;;;;;;;11.76;24.17;99106.75;6858120;28;20214;-79
2022/03/11 07:53:49;;;;;;;9.67;6.43;;;;;;;11.78;24.56;99110.91;6877628;28;20311;-80
2022/03/11 07:57:11;;;;;;;8.27;7.03;;;;;;;11.37;24.80;99093.94;6939787;28;20218;-79
2022/03/11 08:00:37;;;;;;;7.77;6.17;;;;;;;11.43;24.94;99105.78;7040682;28;20798;-79
2022/03/11 08:03:59;;;;;;;10.10;7.13;;;;;;;12.13;24.09;99111.56;7055455;28;20597;-79
2022/03/11 08:07:22;;;;;;;7.83;6.20;;;;;;;11.26;24.75;99108.03;7054277;28;20226;-80
2022/03/11 08:10:44;;;;;;;11.07;7.03;;;;;;;11.88;24.80;99100.53;7054238;28;20212;-79
2022/03/11 08:14:05;;;;;;;9.80;7.17;;;;;;;12.69;23.75;99096.56;7053446;28;20559;-79
2022/03/11 08:17:28;;;;;;;9.87;6.77;;;;;;;12.45;23.81;99106.13;7053401;28;20583;-79
2022/03/11 08:20:50;;;;;;;8.27;6.50;;;;;;;12.35;24.25;99086.81;7053342;28;20674;-79
2022/03/11 08:24:13;;;;;;;10.67;6.87;;;;;;;12.61;24.10;99102.16;7053557;28;20257;-80
2022/03/11 08:27:35;;;;;;;21.30;7.70;;;;;;;12.93;23.43;99099.38;7053117;28;20584;-80
2022/03/11 08:30:57;;;;;;;9.53;6.90;;;;;;;11.99;24.08;99099.91;7052511;28;20232;-79
2022/03/11 08:34:20;;;;;;;10.10;6.73;;;;;;;11.97;25.08;99066.88;7052813;28;20232;-80
2022/03/11 08:37:41;;;;;;;10.73;7.23;;;;;;;12.09;24.00;99092.22;7055030;28;20842;-80
2022/03/11 08:41:06;;;;;;;9.23;6.50;;;;;;;12.43;24.39;99104.69;7053668;28;20567;-80
2022/03/11 08:44:28;;;;;;;10.03;6.70;;;;;;;12.87;23.50;99096.72;7053582;28;20608;-79
2022/03/11 08:47:50;;;;;;;69.47;9.40;;;;;;;13.26;23.89;99088.47;7053268;28;20316;-79
2022/03/11 08:51:13;;;;;;;10.53;6.93;;;;;;;13.28;23.17;99089.91;7053707;28;20227;-80
2022/03/11 08:54:34;;;;;;;8.30;6.80;;;;;;;13.25;23.22;99089.50;7053105;28;20231;-79
2022/03/11 08:57:56;;;;;;;8.63;6.90;;;;;;;13.36;23.54;99059.03;7052624;28;20214;-79
2022/03/11 09:01:18;;;;;;;9.57;7.53;;;;;;;13.25;23.37;99047.03;7024431;28;20409;-79
2022/03/11 09:04:40;;;;;;;9.80;6.83;;;;;;;13.82;23.15;99084.00;7023637;28;20224;-79
2022/03/11 09:08:03;;;;;;;9.20;7.03;;;;;;;13.98;22.99;99078.84;7023686;28;20228;-79
2022/03/11 09:11:25;;;;;;;9.23;7.13;;;;;;;12.35;24.12;99053.53;7023612;28;20214;-80
2022/03/11 09:14:46;;;;;;;8.47;6.83;;;;;;;11.93;25.37;99079.13;7023968;28;20226;-78
2022/03/11 09:18:08;;;;;;;11.07;6.93;;;;;;;13.43;24.54;99062.53;7028543;28;20289;-77
2022/03/11 09:21:29;;;;;;;8.60;6.40;;;;;;;12.56;24.15;99067.63;7030416;28;20348;-78
2022/03/11 09:24:52;;;;;;;8.77;6.77;;;;;;;11.59;26.60;99068.50;7030177;28;20305;-78
2022/03/11 09:28:14;;;;;;;13.33;7.27;;;;;;;11.44;26.96;99067.78;7030484;28;20270;-78
2022/03/11 09:31:35;;;;;;;10.03;7.07;;;;;;;11.25;26.54;99051.53;7028165;28;20203;-78
2022/03/11 09:34:58;;;;;;;11.37;8.20;;;;;;;11.17;27.27;99049.03;7030893;28;20258;-78
2022/03/11 09:38:19;;;;;;;10.47;7.50;;;;;;;11.22;26.88;99054.66;7029469;28;20236;-78
2022/03/11 09:41:42;;;;;;;10.40;7.77;;;;;;;11.37;26.59;99025.63;7031789;28;20640;-78
2022/03/11 09:45:05;;;;;;;9.33;7.87;;;;;;;11.90;26.97;99033.63;7036555;28;20209;-78
2022/03/11 09:48:27;;;;;;;10.67;7.57;;;;;;;12.04;26.55;99040.66;7031594;28;20272;-78
2022/03/11 09:51:49;;;;;;;11.23;8.30;;;;;;;11.59;27.15;99011.78;7035494;28;20199;-78
2022/03/11 09:55:10;;;;;;;10.47;7.73;;;;;;;11.23;27.76;99022.06;7061995;27;20953;-78
2022/03/11 09:58:33;;;;;;;9.90;8.13;;;;;;;12.15;26.64;99015.72;7069616;27;20659;-78
2022/03/11 10:01:55;;;;;;;8.40;7.17;;;;;;;12.74;25.93;99023.69;7048021;27;20587;-78
2022/03/11 10:05:17;;;;;;;9.30;7.47;;;;;;;12.53;26.46;99013.13;7052249;27;20228;-78
2022/03/11 10:08:40;;;;;;;10.30;7.77;;;;;;;12.45;25.71;99014.19;7070059;27;20219;-78
2022/03/11 10:12:05;;;;;;;10.43;8.00;;;;;;;12.29;26.62;99005.72;7079471;27;20222;-78
2022/03/11 10:15:30;;;;;;;10.87;7.60;;;;;;;12.56;26.20;99021.66;7059510;27;20223;-79
2022/03/11 10:18:59;;;;;;;8.27;7.03;;;;;;;12.21;26.62;98987.03;7060496;27;20539;-78
2022/03/11 10:22:24;;;;;;;9.23;7.23;;;;;;;11.53;27.03;98949.63;7084445;27;20194;-78
2022/03/11 10:25:51;;;;;;;10.23;7.73;;;;;;;12.06;27.37;98998.06;7037906;28;20195;-78
2022/03/11 10:29:14;;;;;;;9.83;7.80;;;;;;;12.16;27.16;98993.03;7031021;28;20228;-78
2022/03/11 10:32:49;;;;;;;11.70;8.40;;;;;;;12.13;27.47;98996.19;7030221;28;20237;-78
2022/03/11 10:36:12;;;;;;;17.47;8.90;;;;;;;12.24;27.67;99000.09;7032377;28;20219;-78
2022/03/11 10:39:37;;;;;;;36.03;17.90;;;;;;;12.82;26.75;99012.63;7056048;28;20277;-79
2022/03/11 10:43:17;;;;;;;13.03;8.37;;;;;;;12.39;27.06;98995.31;7057588;28;20224;-79
2022/03/11 10:46:38;;;;;;;11.40;8.07;;;;;;;13.47;26.02;98988.78;7059381;28;20377;-79
2022/03/11 10:50:04;;;;;;;13.17;7.90;;;;;;;14.02;25.86;98974.34;7060376;28;20208;-79
2022/03/11 10:53:26;;;;;;;9.97;7.30;;;;;;;14.25;25.35;98981.88;7059833;28;20220;-79
2022/03/11 10:56:47;;;;;;;9.17;7.43;;;;;;;13.68;25.88;98977.56;7063051;28;20292;-79
2022/03/11 11:00:20;;;;;;;12.90;10.03;;;;;;;13.72;25.80;98976.09;7061068;28;20258;-80
2022/03/11 11:03:42;;;;;;;11.70;8.00;;;;;;;13.66;25.78;98957.16;7057371;28;20294;-79
2022/03/11 11:07:07;;;;;;;9.40;7.60;;;;;;;13.31;26.48;98981.16;7035986;28;20227;-79
2022/03/11 11:10:30;;;;;;;10.10;7.53;;;;;;;13.84;26.41;98965.34;7043957;28;20204;-79
2022/03/11 11:13:52;;;;;;;9.63;7.90;;;;;;;14.68;24.72;98959.06;7026734;28;20252;-79
2022/03/11 11:17:14;;;;;;;11.43;7.70;;;;;;;14.15;25.86;98966.09;7027695;28;20279;-79
2022/03/11 11:20:41;;;;;;;9.33;8.07;;;;;;;14.68;25.28;98969.09;7028584;28;20209;-79
2022/03/11 11:24:06;;;;;;;11.50;7.90;;;;;;;14.18;26.04;98962.94;7029038;28;20232;-80
2022/03/11 11:27:27;;;;;;;10.43;8.13;;;;;;;14.94;24.95;98956.03;7038245;28;20224;-78
2022/03/11 11:30:52;;;;;;;12.63;9.20;;;;;;;14.51;25.42;98935.50;7054041;28;20248;-79
2022/03/11 11:34:25;;;;;;;12.93;8.47;;;;;;;14.34;26.30;98948.00;7051004;28;20224;-78
2022/03/11 11:37:47;;;;;;;15.47;9.23;;;;;;;14.55;27.18;98942.94;7054074;28;20196;-78
2022/03/11 11:44:57;;;;;;;12.93;8.63;;;;;;;14.44;25.27;98913.84;7105197;27;20574;-74
2022/03/11 11:48:56;;;;;;;10.33;8.13;;;;;;;14.45;26.18;98911.97;7130418;27;20223;-74
2022/03/11 11:52:28;;;;;;;11.97;8.50;;;;;;;14.58;25.09;98804.09;7133396;27;20201;-74
2022/03/11 11:55:51;;;;;;;9.90;8.50;;;;;;;14.57;25.61;98910.16;7134553;27;20274;-73
2022/03/11 11:59:19;;;;;;;12.33;8.70;;;;;;;14.29;26.25;98910.66;7116350;27;20232;-76
2022/03/11 12:02:42;;;;;;;12.20;8.50;;;;;;;14.10;24.95;98721.09;7128324;27;20639;-75
2022/03/11 12:06:04;;;;;;;12.37;8.77;;;;;;;13.87;25.68;98754.31;7134302;27;20207;-80
2022/03/11 12:09:51;;;;;;;11.63;9.20;;;;;;;15.12;25.59;98885.38;7129245;27;20212;-75
2022/03/11 12:13:12;;;;;;;12.23;8.67;;;;;;;15.03;25.62;98881.31;7075744;27;20692;-74
2022/03/11 12:17:02;;;;;;;10.57;8.47;;;;;;;15.09;25.28;98880.38;7133375;27;20219;-79
2022/03/11 12:20:31;;;;;;;10.97;8.77;;;;;;;15.84;24.39;98873.31;7114627;27;20214;-73
2022/03/11 12:23:53;;;;;;;13.23;8.47;;;;;;;14.76;25.43;98795.88;7133254;27;20266;-75
2022/03/11 12:27:53;;;;;;;10.40;8.77;;;;;;;15.65;24.54;98869.91;7133686;27;20214;-74
2022/03/11 12:31:21;;;;;;;12.90;8.23;;;;;;;16.45;24.81;98851.84;7133551;27;20210;-75
2022/03/11 12:34:43;;;;;;;13.27;9.07;;;;;;;16.58;23.99;98846.94;7133091;27;20222;-75
2022/03/11 12:38:12;;;;;;;13.30;9.27;;;;;;;16.25;24.57;98840.50;7133167;27;20213;-75
2022/03/11 12:41:34;;;;;;;15.53;9.73;;;;;;;16.33;24.08;98791.16;7132014;27;20195;-75
2022/03/11 12:44:55;;;;;;;12.03;9.87;;;;;;;16.33;24.04;98834.69;7103480;27;20223;-75
2022/03/11 12:48:19;;;;;;;13.57;8.37;;;;;;;17.08;23.43;98822.53;7104633;27;20226;-75
2022/03/11 12:51:41;;;;;;;13.93;9.00;;;;;;;16.60;23.39;98820.31;7104293;27;20653;-75
2022/03/11 12:55:20;;;;;;;12.83;8.17;;;;;;;16.48;23.90;98819.53;7092185;27;20301;-75
2022/03/11 12:58:42;;;;;;;10.40;8.33;;;;;;;17.24;22.90;98800.78;7104855;27;20226;-75
2022/03/11 13:02:05;;;;;;;11.17;8.53;;;;;;;17.20;22.72;98782.41;7085004;27;20223;-75
2022/03/11 13:05:29;;;;;;;14.77;9.37;;;;;;;16.62;23.21;98807.28;7097222;27;20215;-75
2022/03/11 13:08:50;;;;;;;12.37;9.57;;;;;;;16.27;23.91;98811.97;7113418;27;20339;-75
2022/03/11 13:12:24;;;;;;;11.93;8.93;;;;;;;15.99;24.12;98792.88;7102602;27;20196;-75
2022/03/11 13:15:47;;;;;;;12.60;9.83;;;;;;;15.16;24.00;98649.44;7075396;27;20222;-75
2022/03/11 13:19:08;;;;;;;13.00;8.63;;;;;;;15.96;24.53;98757.19;7084966;27;20240;-75
2022/03/11 13:22:30;;;;;;;14.57;8.83;;;;;;;16.15;23.81;98739.66;7084379;27;20576;-75
2022/03/11 13:25:56;;;;;;;10.83;8.33;;;;;;;16.41;23.20;98749.97;7085123;27;20211;-75
2022/03/11 13:29:20;;;;;;;14.13;9.13;;;;;;;16.75;23.81;98747.06;7085315;27;20200;-75
2022/03/11 13:32:42;;;;;;;10.90;8.33;;;;;;;17.60;23.11;98758.56;7079549;27;20571;-73
2022/03/11 13:36:08;;;;;;;10.00;8.60;;;;;;;17.32;22.25;98734.09;7075978;27;20564;-75
2022/03/11 13:39:30;;;;;;;15.20;9.23;;;;;;;16.77;23.34;98757.72;7084692;27;20216;-73
2022/03/11 13:42:55;;;;;;;13.20;10.10;;;;;;;16.70;23.68;98735.28;7068921;27;20710;-74
2022/03/11 13:46:26;;;;;;;10.67;8.47;;;;;;;16.89;22.95;98742.97;7089961;27;20335;-75
2022/03/11 13:49:50;;;;;;;12.37;9.17;;;;;;;16.45;23.48;98724.75;7081839;27;20215;-73
2022/03/11 13:53:13;;;;;;;14.33;9.10;;;;;;;16.43;23.50;98726.91;7056134;28;20697;-72
2022/03/11 13:56:39;;;;;;;12.70;9.27;;;;;;;17.01;23.32;98719.22;7056328;28;20205;-70
2022/03/11 14:00:16;;;;;;;12.17;9.03;;;;;;;17.45;22.79;98726.44;7056642;28;20205;-70
2022/03/11 14:03:49;;;;;;;11.43;9.23;;;;;;;17.09;22.38;98685.25;7068291;27;20215;-76
2022/03/11 14:07:14;;;;;;;10.70;9.20;;;;;;;15.84;23.71;98642.22;7092584;27;20552;-74
2022/03/11 14:10:37;;;;;;;12.93;9.30;;;;;;;17.12;23.21;98725.63;7091079;27;20227;-74
2022/03/11 14:13:59;;;;;;;13.00;9.00;;;;;;;16.93;23.40;98684.19;7055756;28;20226;-74
2022/03/11 14:17:29;;;;;;;14.93;9.87;;;;;;;17.53;22.56;98726.03;7055803;28;21114;-74
2022/03/11 14:20:52;;;;;;;15.77;10.67;;;;;;;16.65;23.18;98719.69;7055602;28;20208;-73
2022/03/11 14:24:14;;;;;;;13.30;9.50;;;;;;;16.53;23.09;98656.31;7074463;27;20230;-73
2022/03/11 14:27:36;;;;;;;12.30;9.10;;;;;;;16.51;23.54;98698.47;7112484;27;20574;-73
2022/03/11 14:30:59;;;;;;;13.13;9.83;;;;;;;16.81;22.99;98699.78;7112507;27;20696;-74
2022/03/11 14:34:20;;;;;;;12.57;9.70;;;;;;;16.71;23.08;98649.81;7112352;27;20207;-73
2022/03/11 14:37:43;;;;;;;12.73;9.83;;;;;;;16.76;23.05;98707.88;7111781;27;20199;-73
2022/03/11 14:41:05;;;;;;;10.67;8.93;;;;;;;17.68;22.76;98695.44;7112091;27;20206;-76
2022/03/11 14:44:27;;;;;;;13.03;9.50;;;;;;;17.20;22.55;98647.03;7111456;27;20272;-74
2022/03/11 14:47:48;;;;;;;11.77;9.40;;;;;;;16.98;23.28;98626.28;7060613;27;20212;-74
2022/03/11 14:51:10;;;;;;;15.13;10.40;;;;;;;17.97;22.07;98664.94;7069354;27;20199;-74
2022/03/11 14:54:33;;;;;;;13.27;8.93;;;;;;;17.20;22.57;98695.22;7082039;27;20196;-74
2022/03/11 14:57:55;;;;;;;13.70;9.30;;;;;;;17.75;22.68;98675.03;7084767;27;20204;-74
2022/03/11 15:01:16;;;;;;;10.57;8.23;;;;;;;17.96;22.68;98674.22;7081248;27;20211;-73
2022/03/11 15:04:38;;;;;;;13.87;9.37;;;;;;;18.84;22.19;98671.00;7086834;27;20297;-73
2022/03/11 15:08:00;;;;;;;12.83;9.70;;;;;;;18.61;21.56;98674.09;7082431;27;20666;-73
2022/03/11 15:11:23;;;;;;;11.07;9.33;;;;;;;18.32;22.29;98672.72;7094379;27;20208;-73
2022/03/11 15:14:44;;;;;;;13.13;9.63;;;;;;;18.74;21.34;98668.22;7110790;27;20209;-74
2022/03/11 15:18:07;;;;;;;13.57;9.27;;;;;;;18.82;21.36;98668.53;7110644;27;20219;-73
2022/03/11 15:21:29;;;;;;;10.80;9.50;;;;;;;18.39;21.53;98665.16;7110496;27;20296;-74
2022/03/11 15:24:50;;;;;;;14.13;9.60;;;;;;;18.12;21.65;98604.28;7109363;27;20584;-73
2022/03/11 15:28:13;;;;;;;13.23;9.50;;;;;;;18.62;21.01;98659.34;7109702;27;20211;-71
2022/03/11 15:31:35;;;;;;;11.63;9.37;;;;;;;18.10;21.99;98666.47;7109840;27;20209;-74
2022/03/11 15:34:57;;;;;;;15.43;10.20;;;;;;;17.44;22.29;98618.50;7067110;27;20201;-74
2022/03/11 15:38:19;;;;;;;15.83;9.57;;;;;;;18.11;21.37;98662.66;7053225;28;20209;-74
2022/03/11 15:41:40;;;;;;;11.50;9.13;;;;;;;17.58;21.85;98580.78;7077750;28;20563;-74
2022/03/11 15:45:04;;;;;;;12.40;9.67;;;;;;;18.42;21.16;98679.13;7079854;28;20232;-74
2022/03/11 15:48:25;;;;;;;10.90;8.87;;;;;;;17.94;20.97;98599.16;7079145;28;20209;-75
2022/03/11 15:51:47;;;;;;;11.50;10.07;;;;;;;17.60;21.87;98680.31;7080739;28;20198;-75
2022/03/11 15:55:12;;;;;;;11.87;9.80;;;;;;;17.69;21.07;98667.06;7080347;28;20247;-75
2022/03/11 15:58:33;;;;;;;13.13;9.43;;;;;;;17.99;21.88;98689.25;7078710;28;20657;-75
2022/03/11 16:01:56;;;;;;;11.77;9.13;;;;;;;18.10;21.36;98680.91;7052005;28;20215;-73
2022/03/11 16:05:19;;;;;;;12.50;9.03;;;;;;;17.49;21.32;98631.34;7051846;28;20243;-75
2022/03/11 16:08:41;;;;;;;14.60;10.20;;;;;;;17.30;21.48;98684.50;7052349;28;20681;-81
2022/03/11 16:12:03;;;;;;;11.70;9.27;;;;;;;17.25;21.21;98665.34;7055056;28;20576;-74
2022/03/11 16:15:25;;;;;;;12.00;9.50;;;;;;;16.73;21.95;98655.81;7051227;28;20200;-75
2022/03/11 16:18:48;;;;;;;13.60;9.43;;;;;;;17.21;21.92;98683.28;7051719;28;20200;-72
2022/03/11 16:22:10;;;;;;;14.17;8.83;;;;;;;17.03;22.05;98689.81;7051589;28;20658;-72
2022/03/11 16:25:32;;;;;;;14.17;9.97;;;;;;;16.85;22.06;98702.84;7080417;27;20739;-72
2022/03/11 16:28:54;;;;;;;11.93;9.43;;;;;;;15.99;22.33;98594.38;7080725;27;20227;-73
2022/03/11 16:32:15;;;;;;;10.90;9.07;;;;;;;16.37;22.61;98714.25;7085261;27;20211;-71
2022/03/11 16:35:39;;;;;;;14.70;9.50;;;;;;;16.26;22.28;98717.00;7085304;27;20192;-72
2022/03/11 16:39:00;;;;;;;10.33;9.23;;;;;;;16.03;23.07;98709.75;7085511;27;20692;-72
2022/03/11 16:42:22;;;;;;;13.57;8.93;;;;;;;16.13;22.74;98722.72;7084923;27;20208;-72
2022/03/11 16:45:44;;;;;;;12.80;9.77;;;;;;;16.11;22.99;98731.13;7085241;27;20233;-71
2022/03/11 16:49:05;;;;;;;14.83;9.70;;;;;;;15.65;22.81;98701.38;7085873;27;20344;-72
2022/03/11 16:52:29;;;;;;;14.67;10.13;;;;;;;15.45;23.09;98678.38;7085400;27;20696;-72
2022/03/11 16:55:50;;;;;;;12.77;9.03;;;;;;;16.17;22.59;98721.19;7085043;27;20215;-72
2022/03/11 16:59:12;;;;;;;16.60;9.57;;;;;;;15.66;23.22;98740.25;7085065;27;20220;-72
2022/03/11 17:02:34;;;;;;;11.37;9.00;;;;;;;14.75;23.46;98644.16;7085096;27;20821;-72
2022/03/11 17:05:56;;;;;;;11.40;8.93;;;;;;;14.97;23.68;98757.34;7073838;27;20244;-71
2022/03/11 17:09:19;;;;;;;12.70;9.43;;;;;;;15.57;23.00;98722.66;7071229;27;20577;-78
2022/03/11 17:12:41;;;;;;;12.90;9.93;;;;;;;14.68;22.59;98616.31;7066556;27;20778;-78
2022/03/11 17:16:04;;;;;;;13.77;8.83;;;;;;;15.08;23.22;98744.84;7056444;28;20569;-78
2022/03/11 17:19:26;;;;;;;11.87;8.50;;;;;;;14.88;23.70;98761.47;7056549;28;20215;-78
2022/03/11 17:22:47;;;;;;;11.93;9.07;;;;;;;13.85;23.79;98636.34;7055728;28;20204;-78
2022/03/11 17:26:11;;;;;;;12.57;8.90;;;;;;;14.50;23.37;98693.19;7055878;28;20293;-78
2022/03/11 17:29:32;;;;;;;13.70;9.83;;;;;;;14.93;23.79;98775.16;7056358;28;20202;-78
2022/03/11 17:32:54;;;;;;;13.27;8.83;;;;;;;14.04;23.68;98665.91;7055627;28;20204;-78
2022/03/11 17:36:16;;;;;;;12.03;9.53;;;;;;;14.11;24.43;98780.50;7055483;28;20211;-77
2022/03/11 17:39:38;;;;;;;10.83;8.53;;;;;;;14.29;24.41;98776.97;7055759;28;20206;-71
2022/03/11 17:43:01;;;;;;;10.10;9.00;;;;;;;14.76;23.81;98778.78;7055174;28;20670;-77
2022/03/11 17:46:24;;;;;;;11.37;9.43;;;;;;;14.28;24.29;98786.16;7055565;28;20222;-78
2022/03/11 17:49:46;;;;;;;10.90;8.80;;;;;;;14.05;24.05;98732.59;7055391;28;20220;-78
2022/03/11 17:53:07;;;;;;;11.17;9.47;;;;;;;13.57;24.30;98685.69;7055152;28;20590;-79
2022/03/11 17:56:29;;;;;;;11.00;9.23;;;;;;;13.13;24.59;98660.81;7060653;27;20200;-81
2022/03/11 17:59:53;;;;;;;12.30;9.13;;;;;;;12.55;24.72;98597.25;7076492;27;20195;-81
2022/03/11 18:03:14;;;;;;;11.37;9.43;;;;;;;13.32;24.51;98731.00;7112951;27;20210;-82